• Join FlightAware (Why Join?)
  • Login
  • US Flag 
01:00PM EST


 

Airport Tracker/Info


-or-


 

Live Flight TrackerFlight Track Log ✈ DAL1562 ✈ 28-Apr-2013 ✈ KPHL - KDTW

Flight Track Log - Related Links

Times and Time Zones

All times are in EDT time to prevent confusion due to time zone crossing. See the DAL1562 flight status page for this flight to view local times or setup timezone preferences in your user account.

Time Position Orientation Groundspeed Altitude Reporting Facility
EDT Latitude Longitude Course Direction KTS MPH feet Rate Location/Type
04:57PM 39.8833 -75.2167 270° West 169 194 800  Level Philadelphia TRACON
04:58PM 39.9000 -75.1667 67° East 230 265 2,400 2,520 Climbing Philadelphia TRACON
04:59PM 39.9500 -75.1333 27° Northeast 290 334 5,400 3,120 Climbing Philadelphia TRACON
05:00PM 39.9124 -75.6497 288° West  Level FlightAware Approximate
05:00PM 40.0000 -75.2000 314° West 280 322 8,700  Level Philadelphia TRACON
05:01PM 39.9000 -75.7892 270° West  Level FlightAware Approximate
05:02PM 39.9000 -75.9319 270° West  Level FlightAware Approximate
05:02PM 39.9611 -75.4292 258° West 289 333 10,100  Level New York Center
05:03PM 39.9000 -76.0746 270° West  Level FlightAware Approximate
05:03PM 39.9417 -75.5522 258° West 322 371 11,100  Level New York Center
05:04PM 39.9175 -75.6806 256° West 360 414 15,200 3,360 Climbing New York Center
05:05PM 39.9142 -75.8075 268° West 366 421 17,800 2,340 Climbing New York Center
05:06PM 39.9156 -75.9242 271° West 361 415 19,900 1,620 Climbing New York Center
05:07PM 39.9139 -76.0567 269° West 366 421 21,100 1,260 Climbing New York Center
05:08PM 39.9114 -76.2000 269° West 379 436 22,500 1,380 Climbing New York Center
05:09PM 39.9128 -76.3517 271° West 405 466 23,900 1,320 Climbing New York Center
05:10PM 39.9197 -76.5064 273° West 418 481 25,200 1,800 Climbing New York Center
05:11PM 39.9250 -76.6558 273° West 425 489 27,500 1,380 Climbing New York Center
05:12PM 39.9447 -76.8011 280° West 419 482 28,000 240 Climbing New York Center
05:13PM 39.9728 -76.9469 284° West 414 476 28,000 840 Level New York Center
05:14PM 40.0003 -77.0931 284° West 414 476 29,700 960 Climbing New York Center
05:15PM 40.0258 -77.2367 283° West 419 482 30,000 120 Climbing New York Center
05:16PM 40.0533 -77.3803 284° West 419 482 30,000  Level New York Center
05:17PM 40.0808 -77.5239 284° West 419 482 30,000  Level New York Center
05:21PM 40.1369 -78.0494 278° West 406 467 30,000 -240 Level Cleveland Center
05:22PM 40.1400 -78.1958 272° West 401 461 29,000 -1,260 Descending Cleveland Center
05:23PM 40.1411 -78.3453 271° West 407 468 27,500 -1,380 Descending Cleveland Center
05:24PM 40.1397 -78.4947 269° West 412 474 26,300 -780 Descending Cleveland Center
05:25PM 40.1506 -78.6411 276° West 418 481 26,000 -180 Descending Cleveland Center
05:26PM 40.1864 -78.7894 288° West 424 488 26,000  Level Cleveland Center
05:27PM 40.2242 -78.9353 289° West 424 488 26,000  Level Cleveland Center
05:28PM 40.2614 -79.0731 290° West 419 482 26,000  Level Cleveland Center
05:29PM 40.2967 -79.2111 289° West 412 474 26,000  Level Cleveland Center
05:30PM 40.3378 -79.3628 290° West 402 463 26,000  Level Cleveland Center
05:31PM 40.3728 -79.5011 288° West 402 463 26,000  Level Cleveland Center
05:32PM 40.4072 -79.6425 288° West 402 463 26,000  Level Cleveland Center
05:33PM 40.4394 -79.7728 288° West 407 468 26,000  Level Cleveland Center
05:34PM 40.4717 -79.9089 287° West 402 463 26,000  Level Cleveland Center
05:35PM 40.5058 -80.0478 288° West 402 463 26,000  Level Cleveland Center
05:36PM 40.5397 -80.1897 287° West 402 463 26,000  Level Cleveland Center
05:37PM 40.5733 -80.3344 287° West 402 463 26,000  Level Cleveland Center
05:38PM 40.6133 -80.4928 288° West 409 471 26,000  Level Cleveland Center
05:39PM 40.6467 -80.6242 289° West 416 479 26,000  Level Cleveland Center
05:40PM 40.6861 -80.7583 291° West 416 479 26,000  Level Cleveland Center
05:41PM 40.7483 -80.8900 302° West 416 479 26,000  Level Cleveland Center
05:42PM 40.8125 -81.0167 304° West 416 479 26,000  Level Cleveland Center
05:43PM 40.8767 -81.1517 302° West 422 486 26,000  Level Cleveland Center
05:44PM 40.9386 -81.2786 303° West 427 491 26,000  Level Cleveland Center
05:45PM 41.0000 -81.4111 302° West 409 471 26,000  Level Cleveland Center
05:46PM 41.0264 -81.5272 287° West 339 390 26,000  Level Cleveland Center
05:47PM 41.0314 -81.6511 273° West 344 396 26,000  Level Cleveland Center
05:48PM 41.0364 -81.7778 273° West 349 402 26,000  Level Cleveland Center
05:49PM 41.0475 -81.9047 277° West 349 402 26,000  Level Cleveland Center
05:50PM 41.1089 -82.0078 308° West 337 388 26,000  Level Cleveland Center
05:51PM 41.1828 -82.0922 319° Northwest 362 417 26,000 -300 Level Cleveland Center
05:52PM 41.2669 -82.2019 316° Northwest 402 463 25,500 -1,020 Descending Cleveland Center
05:53PM 41.3508 -82.3064 317° Northwest 412 474 24,000 -2,040 Descending Cleveland Center
05:54PM 41.4347 -82.4111 317° Northwest 412 474 21,500 -2,640 Descending Cleveland Center
05:55PM 41.5244 -82.5247 317° Northwest 412 474 18,800 -2,820 Descending Cleveland Center
05:56PM 41.5900 -82.6014 319° Northwest 394 453 16,500 -2,580 Descending Cleveland Center
05:57PM 41.6775 -82.7183 315° West 386 444 13,700 -2,460 Descending Cleveland Center
05:57PM 41.7058 -82.7553 316° Northwest 372 428 12,800 -1,740 Descending Cleveland Center
05:58PM 41.7528 -82.8125 318° Northwest 375 432 12,000 -840 Descending Cleveland Center
05:58PM 41.7772 -82.8414 319° Northwest 354 407 12,000  Level Cleveland Center
05:59PM 41.8133 -82.9122 304° West 358 412 12,000 60 Level Cleveland Center
05:59PM 41.8436 -82.9636 308° West 357 411 12,100 60 Climbing Cleveland Center
06:00PM 41.8736 -83.0175 307° West 358 412 12,100  Level Cleveland Center
06:00PM 41.9058 -83.0719 309° West 355 409 12,100 -120 Level Cleveland Center
06:01PM 41.9319 -83.1231 304° West 353 406 12,000  Descending Cleveland Center
06:01PM 41.9639 -83.1775 308° West 354 407 12,100  Climbing Cleveland Center
06:02PM 41.9919 -83.2289 306° West 353 406 12,000  Descending Cleveland Center
06:02PM 42.0322 -83.2950 309° West 356 410 12,100  Climbing Cleveland Center
06:03PM 42.0461 -83.3233 303° West 353 406 12,000  Descending Cleveland Center
06:03PM 42.0989 -83.3789 322° Northwest 355 409 12,100 -300 Climbing Cleveland Center
06:04PM 42.1233 -83.4022 325° Northwest 346 398 11,700 -1,080 Descending Cleveland Center
06:05PM 42.1844 -83.4556 327° Northwest 318 366 10,900 -1,140 Descending Cleveland Center
06:05PM 42.2011 -83.4619 344° North 338 389 10,600 -1,200 Descending Cleveland Center
06:06PM 42.2656 -83.4733 353° North 279 321 9,700 -1,440 Descending Cleveland Center
06:07PM 42.3328 -83.4481 16° North 250 288 8,200 -1,740 Descending Cleveland Center
06:08PM 42.4003 -83.4203 17° North 244 281 6,200 -1,680 Descending Cleveland Center
06:09PM 42.4653 -83.3950 16° North 237 273 4,800 -1,140 Descending Cleveland Center
06:10PM 42.5181 -83.3692 20° North 220 253 4,100 -420 Descending Cleveland Center
06:10PM 42.5669 -83.3406 23° Northeast 201 231 4,100  Level Cleveland Center
06:11PM 42.5847 -83.2847 67° East 181 208 4,100  Level Cleveland Center
06:12PM 42.5592 -83.2217 119° Southeast 181 208 4,100  Level Cleveland Center
06:14PM 42.5164 -83.1806 145° Southeast 167 192 4,100  Level Cleveland Center
06:15PM 42.4681 -83.1925 190° South 171 197 4,100  Level Cleveland Center